createdAt,value
2018-09-30T00:01:28.419Z,102005.90
2018-09-30T00:03:57.715Z,102006.41
2018-09-30T00:06:26.847Z,101998.59
2018-09-30T00:08:55.969Z,102002.59
2018-09-30T00:11:25.143Z,102004.09
2018-09-30T00:13:54.312Z,101995.89
2018-09-30T00:16:23.477Z,101999.06
2018-09-30T00:18:52.603Z,101995.37
2018-09-30T00:21:21.817Z,101987.03
2018-09-30T00:23:56.372Z,101980.35
2018-09-30T00:26:30.588Z,101975.66
2018-09-30T00:28:59.722Z,101966.68
2018-09-30T00:31:28.833Z,101971.16
2018-09-30T00:34:03.376Z,101968.49
2018-09-30T00:36:32.576Z,101961.35
2018-09-30T00:39:01.739Z,101955.34
2018-09-30T00:41:30.843Z,101957.36
2018-09-30T00:44:00.124Z,101950.20
2018-09-30T00:46:29.254Z,101951.70
2018-09-30T00:48:58.469Z,101944.05
2018-09-30T00:51:27.617Z,101943.05
2018-09-30T00:53:56.721Z,101938.37
2018-09-30T00:56:25.957Z,101936.05
2018-09-30T00:58:55.261Z,101926.90
2018-09-30T01:01:24.441Z,101926.39
2018-09-30T01:03:53.702Z,101923.73
2018-09-30T01:06:23.251Z,101926.39
2018-09-30T01:08:52.382Z,101917.41
2018-09-30T01:11:22.132Z,101913.89
2018-09-30T01:13:51.229Z,101908.05
2018-09-30T01:16:20.352Z,101903.75
2018-09-30T01:18:49.492Z,101901.61
2018-09-30T01:21:18.617Z,101908.44
2018-09-30T01:23:47.751Z,101902.77
2018-09-30T01:26:16.911Z,101904.44
2018-09-30T01:28:46.028Z,101906.41
2018-09-30T01:31:15.170Z,101903.92
2018-09-30T01:33:44.396Z,101895.72
2018-09-30T01:36:13.508Z,101882.56
2018-09-30T01:38:42.729Z,101892.52
2018-09-30T01:41:11.923Z,101886.72
2018-09-30T01:43:41.045Z,101881.40
2018-09-30T01:46:10.303Z,101884.23
2018-09-30T01:48:39.425Z,101873.42
2018-09-30T01:51:08.543Z,101873.77
2018-09-30T01:53:37.840Z,101873.94
2018-09-30T01:56:07.048Z,101866.08
2018-09-30T01:58:36.204Z,101860.45
2018-09-30T02:01:05.405Z,101870.07
2018-09-30T02:03:34.557Z,101860.21
2018-09-30T02:06:03.829Z,101860.39
2018-09-30T02:08:32.954Z,101864.39
2018-09-30T02:11:02.098Z,101856.06
2018-09-30T02:13:31.263Z,101860.37
2018-09-30T02:16:00.391Z,101854.17
2018-09-30T02:18:29.536Z,101854.66
2018-09-30T02:20:58.724Z,101850.47
2018-09-30T02:23:27.928Z,101843.98
2018-09-30T02:25:57.106Z,101847.45
2018-09-30T02:28:26.231Z,101843.03
2018-09-30T02:30:55.416Z,101835.73
2018-09-30T02:33:24.535Z,101837.53
2018-09-30T02:35:53.694Z,101837.63
2018-09-30T02:38:22.848Z,101840.63
2018-09-30T02:40:52.032Z,101841.09
2018-09-30T02:43:21.136Z,101837.59
2018-09-30T02:45:50.225Z,101837.94
2018-09-30T02:48:19.384Z,101837.77
2018-09-30T02:50:48.911Z,101839.39
2018-09-30T02:53:18.008Z,101836.55
2018-09-30T02:55:47.180Z,101832.74
2018-09-30T02:58:16.299Z,101829.72
2018-09-30T03:00:45.470Z,101826.27
2018-09-30T03:03:14.893Z,101824.45
2018-09-30T03:05:43.982Z,101824.93
2018-09-30T03:08:18.410Z,101822.27
2018-09-30T03:10:47.549Z,101819.09
2018-09-30T03:13:17.005Z,101818.86
2018-09-30T03:15:46.158Z,101807.88
2018-09-30T03:18:15.280Z,101803.90
2018-09-30T03:20:44.408Z,101800.77
2018-09-30T03:23:13.520Z,101794.43
2018-09-30T03:25:42.694Z,101797.59
2018-09-30T03:28:11.823Z,101797.61
2018-09-30T03:30:40.912Z,101798.23
2018-09-30T03:33:10.072Z,101788.98
2018-09-30T03:35:39.173Z,101785.27
2018-09-30T03:38:08.276Z,101783.66
2018-09-30T03:40:37.440Z,101786.34
2018-09-30T03:43:06.621Z,101783.62
2018-09-30T03:45:35.799Z,101783.85
2018-09-30T03:48:04.896Z,101783.75
2018-09-30T03:50:34.021Z,101785.70
2018-09-30T03:53:03.133Z,101781.80
2018-09-30T03:55:32.227Z,101783.48
2018-09-30T03:58:01.369Z,101784.86
2018-09-30T04:00:31.527Z,101780.65
2018-09-30T04:03:00.661Z,101784.58
2018-09-30T04:05:29.768Z,101774.11
2018-09-30T04:07:59.204Z,101769.78
2018-09-30T04:10:28.308Z,101768.61
2018-09-30T04:12:57.548Z,101764.28
2018-09-30T04:15:27.040Z,101768.45
2018-09-30T04:17:56.135Z,101763.00
2018-09-30T04:20:25.244Z,101765.56
2018-09-30T04:22:54.404Z,101760.61
2018-09-30T04:25:23.833Z,101750.44
2018-09-30T04:27:52.966Z,101751.91
2018-09-30T04:30:22.097Z,101746.96
2018-09-30T04:32:51.216Z,101739.36
2018-09-30T04:35:20.367Z,101738.39
2018-09-30T04:37:49.525Z,101736.44
2018-09-30T04:40:18.636Z,101743.72
2018-09-30T04:42:47.766Z,101735.77
2018-09-30T04:45:17.553Z,101736.73
2018-09-30T04:47:46.704Z,101734.45
2018-09-30T04:50:15.822Z,101723.86
2018-09-30T04:52:44.952Z,101719.25
2018-09-30T04:55:14.070Z,101723.94
2018-09-30T04:57:43.168Z,101729.55
2018-09-30T05:00:12.401Z,101734.58
2018-09-30T05:02:41.482Z,101732.21
2018-09-30T05:05:10.633Z,101728.37
2018-09-30T05:07:40.188Z,101724.73
2018-09-30T05:10:09.321Z,101721.92
2018-09-30T05:12:38.410Z,101724.28
2018-09-30T05:15:07.672Z,101721.92
2018-09-30T05:17:36.817Z,101725.56
2018-09-30T05:20:05.956Z,101724.75
2018-09-30T05:22:35.065Z,101724.59
2018-09-30T05:25:04.187Z,101729.27
2018-09-30T05:27:33.617Z,101721.92
2018-09-30T05:30:02.741Z,101722.08
2018-09-30T05:32:31.944Z,101727.88
2018-09-30T05:35:01.106Z,101722.91
2018-09-30T05:37:30.564Z,101726.94
2018-09-30T05:39:59.777Z,101721.63
2018-09-30T05:42:28.978Z,101721.75
2018-09-30T05:44:58.185Z,101715.92
2018-09-30T05:47:27.391Z,101709.96
2018-09-30T05:49:56.553Z,101709.15
2018-09-30T05:52:25.761Z,101712.80
2018-09-30T05:54:55.004Z,101714.30
2018-09-30T05:57:24.554Z,101717.64
2018-09-30T05:59:54.032Z,101707.00
2018-09-30T06:02:23.230Z,101704.52
2018-09-30T06:04:52.328Z,101709.52
2018-09-30T06:07:21.463Z,101709.19
2018-09-30T06:09:50.589Z,101708.19
2018-09-30T06:12:19.825Z,101707.20
2018-09-30T06:14:49.072Z,101711.54
2018-09-30T06:17:18.211Z,101710.69
2018-09-30T06:19:47.408Z,101706.36
2018-09-30T06:22:16.571Z,101707.34
2018-09-30T06:24:46.457Z,101701.84
2018-09-30T06:27:16.457Z,101694.17
2018-09-30T06:29:45.648Z,101700.67
2018-09-30T06:32:14.879Z,101692.00
2018-09-30T06:34:43.940Z,101692.34
2018-09-30T06:37:13.391Z,101687.81
2018-09-30T06:39:42.492Z,101695.95
2018-09-30T06:42:12.656Z,101694.13
2018-09-30T06:44:41.817Z,101698.62
2018-09-30T06:47:10.962Z,101699.94
2018-09-30T06:49:40.465Z,101696.62
2018-09-30T06:52:09.657Z,101695.12
2018-09-30T06:54:38.853Z,101699.94
2018-09-30T06:57:08.023Z,101702.61
2018-09-30T06:59:37.199Z,101706.38
2018-09-30T07:02:06.543Z,101700.39
2018-09-30T07:04:35.697Z,101703.33
2018-09-30T07:07:04.812Z,101690.82
2018-09-30T07:09:34.008Z,101697.95
2018-09-30T07:12:03.141Z,101690.75
2018-09-30T07:14:32.341Z,101691.00
2018-09-30T07:17:01.477Z,101682.27
2018-09-30T07:19:30.638Z,101677.55
2018-09-30T07:21:59.820Z,101671.80
2018-09-30T07:24:28.956Z,101664.53
2018-09-30T07:26:58.125Z,101672.91
2018-09-30T07:29:27.372Z,101665.84
2018-09-30T07:31:56.523Z,101663.56
2018-09-30T07:34:25.825Z,101656.87
2018-09-30T07:36:54.990Z,101655.34
2018-09-30T07:39:24.224Z,101661.11
2018-09-30T07:41:53.825Z,101666.18
2018-09-30T07:44:22.955Z,101660.69
2018-09-30T07:46:52.232Z,101662.75
2018-09-30T07:49:21.401Z,101674.55
2018-09-30T07:51:50.609Z,101684.24
2018-09-30T07:54:20.691Z,101677.78
2018-09-30T07:56:49.813Z,101676.92
2018-09-30T07:59:18.934Z,101675.08
2018-09-30T08:01:48.159Z,101667.95
2018-09-30T08:04:17.302Z,101665.05
2018-09-30T08:06:46.447Z,101667.83
2018-09-30T08:09:15.608Z,101660.28
2018-09-30T08:11:44.744Z,101656.26
2018-09-30T08:14:13.940Z,101653.01
2018-09-30T08:16:43.083Z,101654.05
2018-09-30T08:19:12.310Z,101653.87
2018-09-30T08:21:41.453Z,101653.87
2018-09-30T08:24:10.594Z,101644.01
2018-09-30T08:26:39.732Z,101639.41
2018-09-30T08:29:08.894Z,101640.68
2018-09-30T08:31:38.076Z,101640.42
2018-09-30T08:34:07.457Z,101640.76
2018-09-30T08:36:36.611Z,101640.88
2018-09-30T08:39:07.920Z,101638.83
2018-09-30T08:41:37.033Z,101640.98
2018-09-30T08:44:06.204Z,101623.03
2018-09-30T08:46:35.607Z,101643.91
2018-09-30T08:49:04.814Z,101643.38
2018-09-30T08:51:33.968Z,101639.77
2018-09-30T08:54:03.182Z,101636.55
2018-09-30T08:56:32.371Z,101643.28
2018-09-30T08:59:01.616Z,101640.56
2018-09-30T09:01:30.888Z,101642.44
2018-09-30T09:04:00.000Z,101635.92
2018-09-30T09:06:29.162Z,101642.19
2018-09-30T09:08:58.375Z,101636.30
2018-09-30T09:11:27.630Z,101635.23
2018-09-30T09:13:56.990Z,101624.73
2018-09-30T09:16:26.148Z,101619.09
2018-09-30T09:18:55.329Z,101626.46
2018-09-30T09:21:24.616Z,101627.42
2018-09-30T09:23:53.984Z,101618.57
2018-09-30T09:26:23.158Z,101619.83
2018-09-30T09:28:52.401Z,101615.40
2018-09-30T09:31:21.681Z,101612.01
2018-09-30T09:33:50.892Z,101610.83
2018-09-30T09:36:20.100Z,101594.66
2018-09-30T09:38:49.368Z,101594.95
2018-09-30T09:41:18.559Z,101595.52
2018-09-30T09:43:47.839Z,101597.30
2018-09-30T09:46:17.102Z,101592.38
2018-09-30T09:48:46.360Z,101587.28
2018-09-30T09:51:15.532Z,101581.89
2018-09-30T09:53:44.780Z,101577.53
2018-09-30T09:56:14.236Z,101576.41
2018-09-30T09:58:43.432Z,101578.22
2018-09-30T10:01:12.628Z,101579.17
2018-09-30T10:03:41.843Z,101576.92
2018-09-30T10:06:11.968Z,101582.62
2018-09-30T10:08:41.213Z,101577.50
2018-09-30T10:11:10.544Z,101573.13
2018-09-30T10:13:39.760Z,101568.06
2018-09-30T10:16:08.961Z,101561.31
2018-09-30T10:18:38.265Z,101552.77
2018-09-30T10:21:07.696Z,101545.66
2018-09-30T10:23:36.993Z,101547.98
2018-09-30T10:26:06.397Z,101542.77
2018-09-30T10:28:35.639Z,101545.41
2018-09-30T10:31:04.942Z,101546.55
2018-09-30T10:33:34.261Z,101540.30
2018-09-30T10:36:05.850Z,101531.73
2018-09-30T10:38:35.490Z,101524.59
2018-09-30T10:41:06.216Z,101519.28
2018-09-30T10:43:40.588Z,101511.53
2018-09-30T10:48:49.907Z,101502.47
2018-09-30T10:51:19.375Z,101506.03
2018-09-30T10:53:48.675Z,101508.30
2018-09-30T10:56:17.809Z,101502.72
2018-09-30T10:58:47.075Z,101498.78
2018-09-30T11:01:16.323Z,101487.89
2018-09-30T11:03:45.502Z,101491.00
2018-09-30T11:06:14.680Z,101491.69
2018-09-30T11:08:44.703Z,101488.00
2018-09-30T11:11:13.989Z,101482.08
2018-09-30T11:13:43.205Z,101477.08
2018-09-30T11:16:12.530Z,101475.09
2018-09-30T11:18:41.687Z,101475.07
2018-09-30T11:21:11.053Z,101474.01
2018-09-30T11:23:40.339Z,101472.48
2018-09-30T11:26:09.723Z,101465.98
2018-09-30T11:28:38.901Z,101464.92
2018-09-30T11:31:08.109Z,101462.20
2018-09-30T11:33:37.380Z,101454.47
2018-09-30T11:36:06.649Z,101450.61
2018-09-30T11:38:35.911Z,101451.93
2018-09-30T11:41:07.506Z,101444.06
2018-09-30T11:43:37.554Z,101436.98
2018-09-30T11:46:06.981Z,101431.36
2018-09-30T11:51:17.320Z,101422.34
2018-09-30T11:53:47.340Z,101414.00
2018-09-30T11:56:16.928Z,101419.92
2018-09-30T11:58:46.260Z,101410.48
2018-09-30T12:01:17.636Z,101410.88
2018-09-30T12:03:46.894Z,101404.44
2018-09-30T12:06:16.178Z,101398.97
2018-09-30T12:08:45.507Z,101389.01
2018-09-30T12:11:14.966Z,101381.02
2018-09-30T12:13:44.356Z,101380.30
2018-09-30T12:16:13.528Z,101381.80
2018-09-30T12:18:42.836Z,101392.48
2018-09-30T12:21:12.087Z,101385.42
2018-09-30T12:23:41.434Z,101385.05
2018-09-30T12:26:10.669Z,101377.73
2018-09-30T12:28:39.860Z,101375.80
2018-09-30T12:31:09.177Z,101370.30
2018-09-30T12:33:38.685Z,101371.25
2018-09-30T12:36:08.092Z,101372.34
2018-09-30T12:38:37.501Z,101372.94
2018-09-30T12:41:07.373Z,101378.94
2018-09-30T12:43:37.202Z,101369.52
2018-09-30T12:46:06.463Z,101362.23
2018-09-30T12:48:35.616Z,101361.25
2018-09-30T12:51:04.916Z,101358.47
2018-09-30T12:53:34.195Z,101360.73
2018-09-30T12:56:05.523Z,101355.77
2018-09-30T12:58:34.738Z,101350.05
2018-09-30T13:01:04.857Z,101349.28
2018-09-30T13:03:34.180Z,101348.28
2018-09-30T13:06:03.813Z,101346.05
2018-09-30T13:08:33.120Z,101341.61
2018-09-30T13:11:02.316Z,101344.52
2018-09-30T13:13:31.904Z,101340.67
2018-09-30T13:16:01.704Z,101338.32
2018-09-30T13:18:31.097Z,101332.34
2018-09-30T13:21:00.539Z,101323.89
2018-09-30T13:23:29.684Z,101323.53
2018-09-30T13:25:58.888Z,101324.89
2018-09-30T13:28:28.268Z,101330.59
2018-09-30T13:30:57.838Z,101326.56
2018-09-30T13:33:27.025Z,101320.82
2018-09-30T13:35:56.235Z,101323.24
2018-09-30T13:38:25.869Z,101325.70
2018-09-30T13:40:55.181Z,101325.66
2018-09-30T13:43:24.388Z,101317.50
2018-09-30T13:45:53.761Z,101322.83
2018-09-30T13:48:23.004Z,101325.95
2018-09-30T13:50:52.555Z,101315.08
2018-09-30T13:53:22.244Z,101312.21
2018-09-30T13:55:51.809Z,101317.53
2018-09-30T13:58:21.305Z,101315.21
2018-09-30T14:00:50.816Z,101303.46
2018-09-30T14:03:19.985Z,101307.72
2018-09-30T14:05:49.234Z,101303.52
2018-09-30T14:08:18.616Z,101295.94
2018-09-30T14:10:47.792Z,101296.70
2018-09-30T14:13:17.232Z,101296.62
2018-09-30T14:15:46.523Z,101287.73
2018-09-30T14:18:15.999Z,101294.17
2018-09-30T14:20:45.591Z,101295.27
2018-09-30T14:23:14.982Z,101284.25
2018-09-30T14:28:22.329Z,101284.44
2018-09-30T14:30:51.482Z,101289.56
2018-09-30T14:33:20.652Z,101282.90
2018-09-30T14:35:49.905Z,101278.32
2018-09-30T14:38:19.417Z,101277.48
2018-09-30T14:40:48.657Z,101278.41
2018-09-30T14:43:17.841Z,101275.32
2018-09-30T14:45:47.030Z,101268.66
2018-09-30T14:48:16.301Z,101261.09
2018-09-30T14:50:45.444Z,101260.31
2018-09-30T14:53:14.581Z,101263.44
2018-09-30T14:55:43.784Z,101254.31
2018-09-30T14:58:13.179Z,101247.19
2018-09-30T15:00:42.354Z,101249.48
2018-09-30T15:03:11.533Z,101250.87
2018-09-30T15:05:40.765Z,101246.81
2018-09-30T15:08:09.900Z,101249.96
2018-09-30T15:10:39.044Z,101244.80
2018-09-30T15:13:08.801Z,101247.43
2018-09-30T15:15:38.443Z,101248.74
2018-09-30T15:18:07.927Z,101248.45
2018-09-30T15:20:37.599Z,101254.95
2018-09-30T15:23:06.936Z,101250.81
2018-09-30T15:25:36.904Z,101249.34
2018-09-30T15:28:06.835Z,101241.05
2018-09-30T15:30:36.299Z,101243.76
2018-09-30T15:33:05.856Z,101245.11
2018-09-30T15:35:36.151Z,101240.42
2018-09-30T15:38:06.182Z,101241.36
2018-09-30T15:40:35.952Z,101251.79
2018-09-30T15:43:05.836Z,101243.91
2018-09-30T15:45:35.464Z,101248.98
2018-09-30T15:48:05.322Z,101240.87
2018-09-30T15:50:35.248Z,101230.48
2018-09-30T15:53:04.457Z,101235.62
2018-09-30T15:55:34.415Z,101233.63
2018-09-30T15:58:05.534Z,101235.91
2018-09-30T16:00:34.690Z,101230.75
2018-09-30T16:03:04.007Z,101230.90
2018-09-30T16:05:33.184Z,101227.09
2018-09-30T16:08:02.405Z,101236.97
2018-09-30T16:10:31.625Z,101229.45
2018-09-30T16:13:00.890Z,101228.30
2018-09-30T16:15:30.220Z,101224.25
2018-09-30T16:17:59.360Z,101220.83
2018-09-30T16:20:28.597Z,101215.46
2018-09-30T16:22:57.860Z,101226.41
2018-09-30T16:25:27.057Z,101221.77
2018-09-30T16:27:57.106Z,101223.50
2018-09-30T16:30:26.313Z,101221.53
2018-09-30T16:32:55.480Z,101225.03
2018-09-30T16:35:24.721Z,101229.22
2018-09-30T16:37:53.981Z,101226.06
2018-09-30T16:40:23.248Z,101228.41
2018-09-30T16:42:52.529Z,101229.02
2018-09-30T16:45:21.805Z,101224.97
2018-09-30T16:47:51.016Z,101229.14
2018-09-30T16:50:20.148Z,101231.25
2018-09-30T16:52:49.327Z,101235.36
2018-09-30T16:55:18.724Z,101227.44
2018-09-30T16:57:47.976Z,101231.88
2018-09-30T17:00:17.172Z,101233.77
2018-09-30T17:02:46.352Z,101233.10
2018-09-30T17:05:15.521Z,101238.03
2018-09-30T17:07:44.985Z,101236.73
2018-09-30T17:10:14.165Z,101230.98
2018-09-30T17:12:43.620Z,101232.09
2018-09-30T17:15:12.890Z,101237.72
2018-09-30T17:17:42.073Z,101236.92
2018-09-30T17:20:11.319Z,101241.27
2018-09-30T17:22:40.468Z,101243.56
2018-09-30T17:25:09.709Z,101245.72
2018-09-30T17:27:38.914Z,101246.09
2018-09-30T17:30:09.333Z,101246.19
2018-09-30T17:32:38.603Z,101245.23
2018-09-30T17:35:07.852Z,101247.16
2018-09-30T17:37:37.168Z,101249.14
2018-09-30T17:40:06.776Z,101246.00
2018-09-30T17:42:35.961Z,101247.98
2018-09-30T17:45:05.896Z,101252.92
2018-09-30T17:47:35.108Z,101258.23
2018-09-30T17:50:04.408Z,101255.92
2018-09-30T17:52:33.589Z,101248.62
2018-09-30T17:55:03.706Z,101244.82
2018-09-30T17:57:32.927Z,101240.31
2018-09-30T18:00:02.137Z,101239.95
2018-09-30T18:02:31.364Z,101242.83
2018-09-30T18:05:00.625Z,101243.29
2018-09-30T18:07:29.900Z,101236.18
2018-09-30T18:09:59.128Z,101240.37
2018-09-30T18:12:28.318Z,101242.84
2018-09-30T18:14:57.522Z,101236.04
2018-09-30T18:17:26.684Z,101244.12
2018-09-30T18:19:55.839Z,101242.00
2018-09-30T18:22:25.025Z,101241.34
2018-09-30T18:24:54.261Z,101238.97
2018-09-30T18:27:23.484Z,101239.23
2018-09-30T18:29:52.670Z,101243.20
2018-09-30T18:32:21.873Z,101243.05
2018-09-30T18:34:51.077Z,101236.04
2018-09-30T18:37:20.303Z,101234.08
2018-09-30T18:39:49.562Z,101240.20
2018-09-30T18:42:18.735Z,101240.34
2018-09-30T18:44:47.932Z,101229.52
2018-09-30T18:47:17.162Z,101231.70
2018-09-30T18:49:46.355Z,101233.11
2018-09-30T18:52:15.574Z,101227.04
2018-09-30T18:54:45.612Z,101227.42
2018-09-30T18:57:14.825Z,101224.97
2018-09-30T18:59:43.977Z,101223.16
2018-09-30T19:02:13.199Z,101223.73
2018-09-30T19:04:42.368Z,101218.51
2018-09-30T19:07:11.588Z,101215.16
2018-09-30T19:09:40.773Z,101211.93
2018-09-30T19:12:09.975Z,101213.20
2018-09-30T19:14:39.164Z,101208.52
2018-09-30T19:17:10.303Z,101204.90
2018-09-30T19:19:39.505Z,101197.74
2018-09-30T19:22:08.756Z,101202.81
2018-09-30T19:24:37.888Z,101195.93
2018-09-30T19:27:07.701Z,101194.28
2018-09-30T19:29:36.861Z,101189.16
2018-09-30T19:32:06.117Z,101197.23
2018-09-30T19:34:35.290Z,101192.58
2018-09-30T19:37:04.427Z,101193.92
2018-09-30T19:39:33.616Z,101193.78
2018-09-30T19:42:02.752Z,101190.26
2018-09-30T19:44:31.933Z,101187.88
2018-09-30T19:47:01.161Z,101187.41
2018-09-30T19:49:30.313Z,101184.25
2018-09-30T19:51:59.452Z,101181.52
2018-09-30T19:54:28.660Z,101180.00
2018-09-30T19:56:57.828Z,101176.78
2018-09-30T19:59:27.017Z,101170.41
2018-09-30T20:01:56.152Z,101170.73
2018-09-30T20:04:25.376Z,101168.11
2018-09-30T20:06:54.592Z,101166.59
2018-09-30T20:09:23.813Z,101168.66
2018-09-30T20:11:52.905Z,101167.32
2018-09-30T20:14:22.117Z,101160.16
2018-09-30T20:16:51.332Z,101152.97
2018-09-30T20:19:20.477Z,101157.95
2018-09-30T20:21:49.751Z,101153.61
2018-09-30T20:24:18.946Z,101152.16
2018-09-30T20:26:48.448Z,101151.77
2018-09-30T20:29:17.607Z,101156.44
2018-09-30T20:31:46.804Z,101150.47
2018-09-30T20:34:16.629Z,101148.52
2018-09-30T20:36:45.851Z,101146.69
2018-09-30T20:39:15.044Z,101144.45
2018-09-30T20:41:44.227Z,101143.87
2018-09-30T20:44:13.429Z,101148.66
2018-09-30T20:46:42.623Z,101138.36
2018-09-30T20:49:11.762Z,101133.34
2018-09-30T20:51:40.914Z,101139.61
2018-09-30T20:54:10.152Z,101139.13
2018-09-30T20:56:39.350Z,101133.36
2018-09-30T20:59:08.540Z,101132.20
2018-09-30T21:01:37.679Z,101133.14
2018-09-30T21:04:06.884Z,101132.52
2018-09-30T21:06:37.380Z,101133.37
2018-09-30T21:09:08.927Z,101134.63
2018-09-30T21:11:38.251Z,101137.53
2018-09-30T21:14:07.393Z,101136.38
2018-09-30T21:16:36.629Z,101138.07
2018-09-30T21:19:05.820Z,101138.20
2018-09-30T21:21:34.938Z,101139.89
2018-09-30T21:24:04.414Z,101137.80
2018-09-30T21:26:33.591Z,101133.47
2018-09-30T21:29:02.727Z,101134.12
2018-09-30T21:31:31.853Z,101135.56
2018-09-30T21:34:00.952Z,101132.74
2018-09-30T21:36:30.117Z,101135.41
2018-09-30T21:38:59.272Z,101135.95
2018-09-30T21:41:28.733Z,101133.54
2018-09-30T21:43:57.847Z,101128.52
2018-09-30T21:46:27.019Z,101129.98
2018-09-30T21:48:56.220Z,101130.80
2018-09-30T21:51:25.384Z,101121.65
2018-09-30T21:53:54.545Z,101124.41
2018-09-30T21:56:24.550Z,101124.19
2018-09-30T21:58:53.654Z,101121.28
2018-09-30T22:01:22.871Z,101117.70
2018-09-30T22:03:51.939Z,101120.28
2018-09-30T22:06:21.028Z,101115.52
2018-09-30T22:08:50.231Z,101112.20
2018-09-30T22:11:19.944Z,101105.81
2018-09-30T22:13:49.171Z,101103.31
2018-09-30T22:16:18.351Z,101103.31
2018-09-30T22:18:47.599Z,101098.35
2018-09-30T22:21:16.740Z,101098.75
2018-09-30T22:23:45.859Z,101100.13
2018-09-30T22:26:15.588Z,101098.17
2018-09-30T22:28:44.701Z,101095.70
2018-09-30T22:31:13.874Z,101095.80
2018-09-30T22:33:43.084Z,101091.05
2018-09-30T22:36:12.175Z,101091.33
2018-09-30T22:38:41.287Z,101093.34
2018-09-30T22:41:10.459Z,101100.17
2018-09-30T22:43:39.541Z,101089.75
2018-09-30T22:46:08.664Z,101091.45
2018-09-30T22:48:38.086Z,101090.45
2018-09-30T22:51:07.221Z,101088.48
2018-09-30T22:53:36.324Z,101083.25
2018-09-30T22:56:05.467Z,101085.61
2018-09-30T22:58:36.821Z,101079.12
2018-09-30T23:01:05.980Z,101080.06
2018-09-30T23:03:35.080Z,101078.94
2018-09-30T23:06:04.210Z,101073.80
2018-09-30T23:08:33.340Z,101071.43
2018-09-30T23:11:02.456Z,101074.39
2018-09-30T23:13:31.537Z,101074.92
2018-09-30T23:16:00.710Z,101067.50
2018-09-30T23:18:29.836Z,101066.06
2018-09-30T23:20:59.008Z,101071.95
2018-09-30T23:23:28.140Z,101064.54
2018-09-30T23:25:57.219Z,101061.36
2018-09-30T23:28:26.356Z,101070.73
2018-09-30T23:30:55.472Z,101065.47
2018-09-30T23:33:24.601Z,101067.50
2018-09-30T23:35:53.712Z,101070.90
2018-09-30T23:38:22.840Z,101073.98
2018-09-30T23:40:51.948Z,101064.34
2018-09-30T23:43:21.075Z,101065.47
2018-09-30T23:45:50.228Z,101069.77
2018-09-30T23:48:19.641Z,101068.38
2018-09-30T23:50:48.758Z,101065.93
2018-09-30T23:53:17.871Z,101064.97
2018-09-30T23:55:47.110Z,101062.52
2018-09-30T23:58:16.216Z,101062.83
